sensor_id;sensor_type;location;lat;lon;timestamp;pressure;altitude;pressure_sealevel;temperature;humidity
70250;BME280;57644;48.416;-123.374;2023-02-04T00:02:10;100759.82;;;-1.58;100.00
70250;BME280;57644;48.416;-123.374;2023-02-04T00:04:41;100766.67;;;-1.80;100.00
70250;BME280;57644;48.416;-123.374;2023-02-04T00:07:11;100775.99;;;-1.89;100.00
70250;BME280;57644;48.416;-123.374;2023-02-04T00:09:42;100779.54;;;-1.87;100.00
70250;BME280;57644;48.416;-123.374;2023-02-04T00:12:12;100785.78;;;-1.82;100.00
70250;BME280;57644;48.416;-123.374;2023-02-04T00:14:42;100795.54;;;-1.78;100.00
70250;BME280;57644;48.416;-123.374;2023-02-04T00:17:13;100795.67;;;-1.65;100.00
70250;BME280;57644;48.416;-123.374;2023-02-04T00:19:43;100799.99;;;-1.51;100.00
70250;BME280;57644;48.416;-123.374;2023-02-04T00:22:14;100801.59;;;-1.27;100.00
70250;BME280;57644;48.416;-123.374;2023-02-04T00:24:44;100797.51;;;-1.16;100.00
70250;BME280;57644;48.416;-123.374;2023-02-04T00:27:15;100807.84;;;-1.39;100.00
70250;BME280;57644;48.416;-123.374;2023-02-04T00:29:46;100824.21;;;-1.57;100.00
70250;BME280;57644;48.416;-123.374;2023-02-04T00:32:16;100824.18;;;-1.25;100.00
70250;BME280;57644;48.416;-123.374;2023-02-04T00:34:46;100827.37;;;-1.53;100.00
70250;BME280;57644;48.416;-123.374;2023-02-04T00:37:17;100830.41;;;-1.32;100.00
70250;BME280;57644;48.416;-123.374;2023-02-04T00:39:47;100830.10;;;-1.18;100.00
70250;BME280;57644;48.416;-123.374;2023-02-04T00:42:18;100829.14;;;-0.89;100.00
70250;BME280;57644;48.416;-123.374;2023-02-04T00:44:48;100836.58;;;-0.93;100.00
70250;BME280;57644;48.416;-123.374;2023-02-04T00:47:19;100832.78;;;-0.78;100.00
70250;BME280;57644;48.416;-123.374;2023-02-04T00:49:49;100830.49;;;-0.74;100.00
70250;BME280;57644;48.416;-123.374;2023-02-04T00:52:20;100828.21;;;-0.66;100.00
70250;BME280;57644;48.416;-123.374;2023-02-04T00:54:51;100834.87;;;-0.61;100.00
70250;BME280;57644;48.416;-123.374;2023-02-04T00:57:21;100836.32;;;-1.03;100.00
70250;BME280;57644;48.416;-123.374;2023-02-04T00:59:51;100832.68;;;-0.56;100.00
70250;BME280;57644;48.416;-123.374;2023-02-04T01:02:22;100832.23;;;-0.30;100.00
70250;BME280;57644;48.416;-123.374;2023-02-04T01:04:52;100831.75;;;-0.35;100.00
70250;BME280;57644;48.416;-123.374;2023-02-04T01:07:23;100834.76;;;-0.37;100.00
70250;BME280;57644;48.416;-123.374;2023-02-04T01:09:53;100834.19;;;-0.26;100.00
70250;BME280;57644;48.416;-123.374;2023-02-04T01:12:24;100825.45;;;-0.03;100.00
70250;BME280;57644;48.416;-123.374;2023-02-04T01:14:54;100829.15;;;0.04;100.00
70250;BME280;57644;48.416;-123.374;2023-02-04T01:17:25;100834.66;;;-0.22;100.00
70250;BME280;57644;48.416;-123.374;2023-02-04T01:19:55;100842.13;;;-0.03;100.00
70250;BME280;57644;48.416;-123.374;2023-02-04T01:22:26;100846.86;;;-0.23;100.00
70250;BME280;57644;48.416;-123.374;2023-02-04T01:24:56;100851.68;;;-0.49;100.00
70250;BME280;57644;48.416;-123.374;2023-02-04T01:27:27;100855.94;;;-0.96;100.00
70250;BME280;57644;48.416;-123.374;2023-02-04T01:29:57;100864.13;;;-0.99;100.00
70250;BME280;57644;48.416;-123.374;2023-02-04T01:32:28;100876.10;;;-0.68;100.00
70250;BME280;57644;48.416;-123.374;2023-02-04T01:34:58;100879.40;;;-0.57;100.00
70250;BME280;57644;48.416;-123.374;2023-02-04T01:37:29;100881.93;;;-0.45;100.00
70250;BME280;57644;48.416;-123.374;2023-02-04T01:39:59;100881.46;;;-0.27;100.00
70250;BME280;57644;48.416;-123.374;2023-02-04T01:42:30;100887.20;;;-0.33;100.00
70250;BME280;57644;48.416;-123.374;2023-02-04T01:45:00;100896.90;;;-0.71;100.00
70250;BME280;57644;48.416;-123.374;2023-02-04T01:47:30;100900.59;;;-0.41;100.00
70250;BME280;57644;48.416;-123.374;2023-02-04T01:50:01;100906.55;;;-0.44;100.00
70250;BME280;57644;48.416;-123.374;2023-02-04T01:52:34;100909.17;;;-0.29;100.00
70250;BME280;57644;48.416;-123.374;2023-02-04T01:55:02;100914.48;;;-0.44;100.00
70250;BME280;57644;48.416;-123.374;2023-02-04T01:57:33;100920.86;;;-0.33;100.00
70250;BME280;57644;48.416;-123.374;2023-02-04T02:00:05;100924.04;;;-0.58;100.00
70250;BME280;57644;48.416;-123.374;2023-02-04T02:02:39;100920.93;;;-0.55;100.00
70250;BME280;57644;48.416;-123.374;2023-02-04T02:05:04;100924.26;;;-1.50;100.00
70250;BME280;57644;48.416;-123.374;2023-02-04T02:07:34;100936.75;;;-1.03;100.00
70250;BME280;57644;48.416;-123.374;2023-02-04T02:10:06;100938.99;;;-0.81;100.00
70250;BME280;57644;48.416;-123.374;2023-02-04T02:12:35;100947.87;;;-1.00;100.00
70250;BME280;57644;48.416;-123.374;2023-02-04T02:15:06;100949.81;;;-0.78;100.00
70250;BME280;57644;48.416;-123.374;2023-02-04T02:17:36;100955.73;;;-1.19;100.00
70250;BME280;57644;48.416;-123.374;2023-02-04T02:20:08;100959.99;;;-0.92;100.00
70250;BME280;57644;48.416;-123.374;2023-02-04T02:22:42;100957.56;;;-0.80;100.00
70250;BME280;57644;48.416;-123.374;2023-02-04T02:25:10;100967.78;;;-0.93;100.00
70250;BME280;57644;48.416;-123.374;2023-02-04T02:27:38;100979.83;;;-0.63;100.00
70250;BME280;57644;48.416;-123.374;2023-02-04T02:30:10;100986.74;;;-0.38;100.00
70250;BME280;57644;48.416;-123.374;2023-02-04T02:32:39;100984.51;;;-0.55;100.00
70250;BME280;57644;48.416;-123.374;2023-02-04T02:35:09;100985.06;;;-0.61;100.00
70250;BME280;57644;48.416;-123.374;2023-02-04T02:37:39;101003.40;;;-0.57;100.00
70250;BME280;57644;48.416;-123.374;2023-02-04T02:40:11;101013.80;;;-0.45;100.00
70250;BME280;57644;48.416;-123.374;2023-02-04T02:42:41;101016.66;;;-0.33;100.00
70250;BME280;57644;48.416;-123.374;2023-02-04T02:45:16;101011.92;;;-0.51;100.00
70250;BME280;57644;48.416;-123.374;2023-02-04T02:47:41;101016.73;;;-1.09;100.00
70250;BME280;57644;48.416;-123.374;2023-02-04T02:50:16;101024.90;;;-0.41;100.00
70250;BME280;57644;48.416;-123.374;2023-02-04T02:52:42;101034.95;;;-0.21;100.00
70250;BME280;57644;48.416;-123.374;2023-02-04T02:55:15;101041.79;;;-0.23;100.00
70250;BME280;57644;48.416;-123.374;2023-02-04T02:57:44;101054.04;;;0.02;100.00
70250;BME280;57644;48.416;-123.374;2023-02-04T03:00:16;101066.61;;;0.10;100.00
70250;BME280;57644;48.416;-123.374;2023-02-04T03:02:52;101074.66;;;0.24;100.00
70250;BME280;57644;48.416;-123.374;2023-02-04T03:05:14;101083.30;;;0.34;100.00
70250;BME280;57644;48.416;-123.374;2023-02-04T03:07:44;101085.04;;;-0.06;100.00
70250;BME280;57644;48.416;-123.374;2023-02-04T03:10:15;101087.35;;;0.25;100.00
70250;BME280;57644;48.416;-123.374;2023-02-04T03:12:46;101090.43;;;0.36;100.00
70250;BME280;57644;48.416;-123.374;2023-02-04T03:15:16;101093.36;;;0.45;100.00
70250;BME280;57644;48.416;-123.374;2023-02-04T03:17:47;101096.74;;;0.48;100.00
70250;BME280;57644;48.416;-123.374;2023-02-04T03:20:17;101098.48;;;0.46;100.00
70250;BME280;57644;48.416;-123.374;2023-02-04T03:22:47;101102.11;;;0.56;100.00
70250;BME280;57644;48.416;-123.374;2023-02-04T03:25:18;101108.46;;;0.63;100.00
70250;BME280;57644;48.416;-123.374;2023-02-04T03:27:48;101107.11;;;0.68;100.00
70250;BME280;57644;48.416;-123.374;2023-02-04T03:30:19;101116.22;;;0.73;100.00
70250;BME280;57644;48.416;-123.374;2023-02-04T03:32:50;101122.35;;;0.76;100.00
70250;BME280;57644;48.416;-123.374;2023-02-04T03:35:20;101125.26;;;0.71;100.00
70250;BME280;57644;48.416;-123.374;2023-02-04T03:37:50;101130.39;;;0.62;100.00
70250;BME280;57644;48.416;-123.374;2023-02-04T03:40:21;101141.31;;;0.60;100.00
70250;BME280;57644;48.416;-123.374;2023-02-04T03:42:51;101144.61;;;0.36;100.00
70250;BME280;57644;48.416;-123.374;2023-02-04T03:45:21;101147.75;;;0.56;100.00
70250;BME280;57644;48.416;-123.374;2023-02-04T03:47:52;101154.81;;;0.41;100.00
70250;BME280;57644;48.416;-123.374;2023-02-04T03:50:22;101153.54;;;0.08;100.00
70250;BME280;57644;48.416;-123.374;2023-02-04T03:52:52;101155.62;;;0.02;100.00
70250;BME280;57644;48.416;-123.374;2023-02-04T03:55:23;101158.76;;;-0.51;100.00
70250;BME280;57644;48.416;-123.374;2023-02-04T03:57:53;101162.29;;;-0.06;100.00
70250;BME280;57644;48.416;-123.374;2023-02-04T04:00:23;101160.03;;;-0.38;100.00
70250;BME280;57644;48.416;-123.374;2023-02-04T04:02:54;101165.42;;;-0.39;100.00
70250;BME280;57644;48.416;-123.374;2023-02-04T04:05:25;101157.00;;;-0.49;100.00
70250;BME280;57644;48.416;-123.374;2023-02-04T04:07:55;101154.09;;;-0.55;100.00
70250;BME280;57644;48.416;-123.374;2023-02-04T04:10:25;101161.25;;;-0.70;100.00
70250;BME280;57644;48.416;-123.374;2023-02-04T04:12:56;101174.36;;;-0.68;100.00
70250;BME280;57644;48.416;-123.374;2023-02-04T04:15:26;101175.03;;;-1.03;100.00
70250;BME280;57644;48.416;-123.374;2023-02-04T04:17:57;101185.22;;;-0.97;100.00
70250;BME280;57644;48.416;-123.374;2023-02-04T04:20:28;101176.74;;;-0.78;100.00
70250;BME280;57644;48.416;-123.374;2023-02-04T04:22:57;101181.38;;;-0.96;100.00
70250;BME280;57644;48.416;-123.374;2023-02-04T04:25:28;101187.89;;;-1.29;100.00
70250;BME280;57644;48.416;-123.374;2023-02-04T04:27:58;101187.26;;;-1.42;100.00
70250;BME280;57644;48.416;-123.374;2023-02-04T04:30:29;101194.17;;;-1.38;100.00
70250;BME280;57644;48.416;-123.374;2023-02-04T04:32:59;101205.19;;;-1.30;100.00
70250;BME280;57644;48.416;-123.374;2023-02-04T04:35:30;101216.07;;;-1.25;100.00
70250;BME280;57644;48.416;-123.374;2023-02-04T04:38:00;101217.31;;;-1.40;100.00
70250;BME280;57644;48.416;-123.374;2023-02-04T04:40:31;101227.13;;;-1.41;100.00
70250;BME280;57644;48.416;-123.374;2023-02-04T04:43:01;101233.46;;;-1.32;100.00
70250;BME280;57644;48.416;-123.374;2023-02-04T04:45:32;101238.41;;;-1.23;100.00
70250;BME280;57644;48.416;-123.374;2023-02-04T04:48:02;101244.40;;;-1.18;100.00
70250;BME280;57644;48.416;-123.374;2023-02-04T04:50:32;101255.16;;;-1.50;100.00
70250;BME280;57644;48.416;-123.374;2023-02-04T04:53:04;101258.07;;;-1.70;100.00
70250;BME280;57644;48.416;-123.374;2023-02-04T04:55:34;101272.94;;;-1.50;100.00
70250;BME280;57644;48.416;-123.374;2023-02-04T04:58:04;101274.01;;;-1.55;100.00
70250;BME280;57644;48.416;-123.374;2023-02-04T05:00:35;101278.61;;;-1.44;100.00
70250;BME280;57644;48.416;-123.374;2023-02-04T05:03:05;101280.36;;;-1.36;100.00
70250;BME280;57644;48.416;-123.374;2023-02-04T05:05:35;101278.19;;;-1.62;100.00
70250;BME280;57644;48.416;-123.374;2023-02-04T05:08:07;101288.88;;;-1.26;100.00
70250;BME280;57644;48.416;-123.374;2023-02-04T05:10:36;101289.54;;;-1.20;100.00
70250;BME280;57644;48.416;-123.374;2023-02-04T05:13:07;101287.86;;;-1.09;100.00
70250;BME280;57644;48.416;-123.374;2023-02-04T05:15:37;101288.97;;;-1.34;100.00
70250;BME280;57644;48.416;-123.374;2023-02-04T05:18:07;101311.82;;;-1.54;100.00
70250;BME280;57644;48.416;-123.374;2023-02-04T05:20:38;101315.78;;;-1.27;100.00
70250;BME280;57644;48.416;-123.374;2023-02-04T05:23:08;101323.08;;;-1.43;100.00
70250;BME280;57644;48.416;-123.374;2023-02-04T05:25:39;101333.26;;;-1.44;100.00
70250;BME280;57644;48.416;-123.374;2023-02-04T05:28:09;101339.40;;;-1.10;100.00
70250;BME280;57644;48.416;-123.374;2023-02-04T05:30:40;101349.76;;;-1.23;100.00
70250;BME280;57644;48.416;-123.374;2023-02-04T05:33:10;101353.31;;;-1.15;100.00
70250;BME280;57644;48.416;-123.374;2023-02-04T05:35:41;101357.74;;;-1.06;100.00
70250;BME280;57644;48.416;-123.374;2023-02-04T05:38:11;101364.72;;;-1.22;100.00
70250;BME280;57644;48.416;-123.374;2023-02-04T05:40:42;101369.60;;;-1.36;100.00
70250;BME280;57644;48.416;-123.374;2023-02-04T05:43:12;101379.43;;;-0.92;100.00
70250;BME280;57644;48.416;-123.374;2023-02-04T05:45:42;101388.22;;;-0.78;100.00
70250;BME280;57644;48.416;-123.374;2023-02-04T05:48:13;101395.84;;;-0.70;100.00
70250;BME280;57644;48.416;-123.374;2023-02-04T05:50:44;101405.67;;;-0.67;100.00
70250;BME280;57644;48.416;-123.374;2023-02-04T05:53:14;101410.30;;;-0.67;100.00
70250;BME280;57644;48.416;-123.374;2023-02-04T05:55:45;101413.73;;;-0.35;100.00
70250;BME280;57644;48.416;-123.374;2023-02-04T05:58:15;101411.61;;;-0.30;100.00
70250;BME280;57644;48.416;-123.374;2023-02-04T06:00:45;101413.44;;;-0.16;100.00
70250;BME280;57644;48.416;-123.374;2023-02-04T06:03:16;101418.57;;;-0.07;100.00
70250;BME280;57644;48.416;-123.374;2023-02-04T06:05:47;101418.61;;;0.01;100.00
70250;BME280;57644;48.416;-123.374;2023-02-04T06:08:18;101418.36;;;0.11;100.00
70250;BME280;57644;48.416;-123.374;2023-02-04T06:10:48;101415.20;;;0.14;100.00
70250;BME280;57644;48.416;-123.374;2023-02-04T06:13:19;101411.12;;;0.03;100.00
70250;BME280;57644;48.416;-123.374;2023-02-04T06:15:49;101407.22;;;0.11;100.00
70250;BME280;57644;48.416;-123.374;2023-02-04T06:18:20;101406.76;;;0.14;100.00
70250;BME280;57644;48.416;-123.374;2023-02-04T06:20:50;101405.43;;;0.29;100.00
70250;BME280;57644;48.416;-123.374;2023-02-04T06:23:20;101408.60;;;0.39;100.00
70250;BME280;57644;48.416;-123.374;2023-02-04T06:25:51;101410.33;;;0.40;100.00
70250;BME280;57644;48.416;-123.374;2023-02-04T06:28:21;101416.29;;;0.50;100.00
70250;BME280;57644;48.416;-123.374;2023-02-04T06:30:52;101415.88;;;0.55;100.00
70250;BME280;57644;48.416;-123.374;2023-02-04T06:33:22;101419.41;;;0.55;100.00
70250;BME280;57644;48.416;-123.374;2023-02-04T06:35:52;101421.74;;;0.64;100.00
70250;BME280;57644;48.416;-123.374;2023-02-04T06:38:23;101420.95;;;0.66;100.00
70250;BME280;57644;48.416;-123.374;2023-02-04T06:40:53;101419.59;;;0.66;100.00
70250;BME280;57644;48.416;-123.374;2023-02-04T06:43:24;101424.62;;;0.71;100.00
70250;BME280;57644;48.416;-123.374;2023-02-04T06:45:54;101425.17;;;0.76;100.00
70250;BME280;57644;48.416;-123.374;2023-02-04T06:48:24;101424.39;;;0.77;100.00
70250;BME280;57644;48.416;-123.374;2023-02-04T06:50:55;101434.47;;;0.76;100.00
70250;BME280;57644;48.416;-123.374;2023-02-04T06:53:26;101447.82;;;0.73;100.00
70250;BME280;57644;48.416;-123.374;2023-02-04T06:55:56;101446.13;;;0.78;100.00
70250;BME280;57644;48.416;-123.374;2023-02-04T06:58:26;101447.65;;;0.80;100.00
70250;BME280;57644;48.416;-123.374;2023-02-04T07:00:57;101450.37;;;0.80;100.00
70250;BME280;57644;48.416;-123.374;2023-02-04T07:03:27;101449.73;;;0.84;100.00
70250;BME280;57644;48.416;-123.374;2023-02-04T07:05:58;101459.49;;;0.81;100.00
70250;BME280;57644;48.416;-123.374;2023-02-04T07:08:28;101467.79;;;0.84;100.00
70250;BME280;57644;48.416;-123.374;2023-02-04T07:10:59;101475.64;;;0.81;100.00
70250;BME280;57644;48.416;-123.374;2023-02-04T07:13:29;101488.45;;;0.61;100.00
70250;BME280;57644;48.416;-123.374;2023-02-04T07:15:59;101496.76;;;0.69;100.00
70250;BME280;57644;48.416;-123.374;2023-02-04T07:18:30;101500.56;;;-0.39;100.00
70250;BME280;57644;48.416;-123.374;2023-02-04T07:21:00;101506.48;;;-0.32;100.00
70250;BME280;57644;48.416;-123.374;2023-02-04T07:23:31;101506.80;;;-0.68;100.00
70250;BME280;57644;48.416;-123.374;2023-02-04T07:26:01;101502.03;;;-0.29;100.00
70250;BME280;57644;48.416;-123.374;2023-02-04T07:28:32;101513.09;;;-0.69;100.00
70250;BME280;57644;48.416;-123.374;2023-02-04T07:31:02;101510.40;;;-0.76;100.00
70250;BME280;57644;48.416;-123.374;2023-02-04T07:33:33;101510.57;;;-0.39;100.00
70250;BME280;57644;48.416;-123.374;2023-02-04T07:36:03;101516.93;;;-0.29;100.00
70250;BME280;57644;48.416;-123.374;2023-02-04T07:38:33;101523.44;;;-0.00;100.00
70250;BME280;57644;48.416;-123.374;2023-02-04T07:41:04;101524.30;;;0.17;100.00
70250;BME280;57644;48.416;-123.374;2023-02-04T07:43:34;101533.16;;;-0.07;100.00
70250;BME280;57644;48.416;-123.374;2023-02-04T07:46:05;101539.94;;;-0.36;100.00
70250;BME280;57644;48.416;-123.374;2023-02-04T07:48:35;101548.50;;;-0.10;100.00
70250;BME280;57644;48.416;-123.374;2023-02-04T07:51:06;101545.71;;;0.14;100.00
70250;BME280;57644;48.416;-123.374;2023-02-04T07:53:36;101552.30;;;-0.01;100.00
70250;BME280;57644;48.416;-123.374;2023-02-04T07:56:07;101550.08;;;-0.08;100.00
70250;BME280;57644;48.416;-123.374;2023-02-04T07:58:37;101545.59;;;-0.51;100.00
70250;BME280;57644;48.416;-123.374;2023-02-04T08:01:08;101557.16;;;-1.05;100.00
70250;BME280;57644;48.416;-123.374;2023-02-04T08:03:38;101555.02;;;-1.28;100.00
70250;BME280;57644;48.416;-123.374;2023-02-04T08:06:09;101551.64;;;-1.19;100.00
70250;BME280;57644;48.416;-123.374;2023-02-04T08:08:40;101552.85;;;-1.05;100.00
70250;BME280;57644;48.416;-123.374;2023-02-04T08:11:10;101550.77;;;-1.87;100.00
70250;BME280;57644;48.416;-123.374;2023-02-04T08:13:40;101547.57;;;-1.51;100.00
70250;BME280;57644;48.416;-123.374;2023-02-04T08:16:11;101547.70;;;-1.78;100.00
70250;BME280;57644;48.416;-123.374;2023-02-04T08:18:41;101545.20;;;-1.65;100.00
70250;BME280;57644;48.416;-123.374;2023-02-04T08:21:12;101548.62;;;-1.26;100.00
70250;BME280;57644;48.416;-123.374;2023-02-04T08:23:42;101546.23;;;-1.14;100.00
70250;BME280;57644;48.416;-123.374;2023-02-04T08:26:13;101543.61;;;-1.47;100.00
70250;BME280;57644;48.416;-123.374;2023-02-04T08:28:43;101539.12;;;-1.05;100.00
70250;BME280;57644;48.416;-123.374;2023-02-04T08:31:13;101541.58;;;-0.91;100.00
70250;BME280;57644;48.416;-123.374;2023-02-04T08:33:44;101541.46;;;-0.68;100.00
70250;BME280;57644;48.416;-123.374;2023-02-04T08:36:15;101539.53;;;-0.46;100.00
70250;BME280;57644;48.416;-123.374;2023-02-04T08:38:45;101541.79;;;-0.41;100.00
70250;BME280;57644;48.416;-123.374;2023-02-04T08:41:16;101538.65;;;-0.39;100.00
70250;BME280;57644;48.416;-123.374;2023-02-04T08:43:46;101534.68;;;-0.16;100.00
70250;BME280;57644;48.416;-123.374;2023-02-04T08:46:16;101530.37;;;-0.26;100.00
70250;BME280;57644;48.416;-123.374;2023-02-04T08:48:47;101529.49;;;-0.05;100.00
70250;BME280;57644;48.416;-123.374;2023-02-04T08:51:17;101525.84;;;-0.35;100.00
70250;BME280;57644;48.416;-123.374;2023-02-04T08:53:48;101523.92;;;-0.25;100.00
70250;BME280;57644;48.416;-123.374;2023-02-04T08:56:19;101520.51;;;-0.38;100.00
70250;BME280;57644;48.416;-123.374;2023-02-04T08:58:49;101519.81;;;-0.51;100.00
70250;BME280;57644;48.416;-123.374;2023-02-04T09:01:19;101518.30;;;-0.41;100.00
70250;BME280;57644;48.416;-123.374;2023-02-04T09:03:50;101513.38;;;-0.44;100.00
70250;BME280;57644;48.416;-123.374;2023-02-04T09:06:20;101518.86;;;-0.32;100.00
70250;BME280;57644;48.416;-123.374;2023-02-04T09:08:51;101513.78;;;-0.45;100.00
70250;BME280;57644;48.416;-123.374;2023-02-04T09:11:21;101510.43;;;-0.35;100.00
70250;BME280;57644;48.416;-123.374;2023-02-04T09:13:51;101514.84;;;-0.24;100.00
70250;BME280;57644;48.416;-123.374;2023-02-04T09:16:22;101513.85;;;-0.70;100.00
70250;BME280;57644;48.416;-123.374;2023-02-04T09:18:52;101507.86;;;-0.80;100.00
70250;BME280;57644;48.416;-123.374;2023-02-04T09:21:23;101510.22;;;-1.03;100.00
70250;BME280;57644;48.416;-123.374;2023-02-04T09:23:53;101510.21;;;-0.84;100.00
70250;BME280;57644;48.416;-123.374;2023-02-04T09:26:23;101511.73;;;-1.11;100.00
70250;BME280;57644;48.416;-123.374;2023-02-04T09:28:54;101510.09;;;-1.66;100.00
70250;BME280;57644;48.416;-123.374;2023-02-04T09:31:25;101508.29;;;-1.50;100.00
70250;BME280;57644;48.416;-123.374;2023-02-04T09:33:55;101498.85;;;-2.01;100.00
70250;BME280;57644;48.416;-123.374;2023-02-04T09:36:25;101494.14;;;-1.92;100.00
70250;BME280;57644;48.416;-123.374;2023-02-04T09:38:56;101495.78;;;-1.73;100.00
70250;BME280;57644;48.416;-123.374;2023-02-04T09:41:26;101497.98;;;-1.51;100.00
70250;BME280;57644;48.416;-123.374;2023-02-04T09:43:58;101504.19;;;-1.26;100.00
70250;BME280;57644;48.416;-123.374;2023-02-04T09:46:28;101499.88;;;-0.94;100.00
70250;BME280;57644;48.416;-123.374;2023-02-04T09:48:59;101496.59;;;-0.69;100.00
70250;BME280;57644;48.416;-123.374;2023-02-04T09:51:32;101498.26;;;-0.57;100.00
70250;BME280;57644;48.416;-123.374;2023-02-04T09:54:05;101507.14;;;-0.43;100.00
70250;BME280;57644;48.416;-123.374;2023-02-04T09:56:30;101510.28;;;-0.27;100.00
70250;BME280;57644;48.416;-123.374;2023-02-04T09:59:00;101504.37;;;-0.12;100.00
70250;BME280;57644;48.416;-123.374;2023-02-04T10:01:30;101503.29;;;0.02;100.00
70250;BME280;57644;48.416;-123.374;2023-02-04T10:04:02;101499.56;;;0.03;100.00
70250;BME280;57644;48.416;-123.374;2023-02-04T10:06:31;101504.46;;;0.13;100.00
70250;BME280;57644;48.416;-123.374;2023-02-04T10:09:02;101508.20;;;0.17;100.00
70250;BME280;57644;48.416;-123.374;2023-02-04T10:11:35;101505.17;;;0.24;100.00
70250;BME280;57644;48.416;-123.374;2023-02-04T10:14:03;101506.15;;;0.26;100.00
70250;BME280;57644;48.416;-123.374;2023-02-04T10:16:34;101505.38;;;0.23;100.00
70250;BME280;57644;48.416;-123.374;2023-02-04T10:19:05;101506.36;;;0.31;100.00
70250;BME280;57644;48.416;-123.374;2023-02-04T10:21:35;101497.84;;;0.35;100.00
70250;BME280;57644;48.416;-123.374;2023-02-04T10:24:10;101485.24;;;0.33;100.00
70250;BME280;57644;48.416;-123.374;2023-02-04T10:26:34;101483.88;;;0.34;100.00
70250;BME280;57644;48.416;-123.374;2023-02-04T10:29:07;101494.93;;;0.40;100.00
70250;BME280;57644;48.416;-123.374;2023-02-04T10:31:37;101496.82;;;0.43;100.00
70250;BME280;57644;48.416;-123.374;2023-02-04T10:34:11;101493.40;;;0.41;100.00
70250;BME280;57644;48.416;-123.374;2023-02-04T10:36:37;101485.43;;;0.37;100.00
70250;BME280;57644;48.416;-123.374;2023-02-04T10:39:12;101485.36;;;0.41;100.00
70250;BME280;57644;48.416;-123.374;2023-02-04T10:41:38;101490.19;;;0.44;100.00
70250;BME280;57644;48.416;-123.374;2023-02-04T10:44:12;101489.60;;;0.50;100.00
70250;BME280;57644;48.416;-123.374;2023-02-04T10:46:38;101494.00;;;0.45;100.00
70250;BME280;57644;48.416;-123.374;2023-02-04T10:49:16;101498.46;;;0.42;100.00
70250;BME280;57644;48.416;-123.374;2023-02-04T10:51:39;101481.68;;;0.39;100.00
70250;BME280;57644;48.416;-123.374;2023-02-04T10:54:12;101475.83;;;0.43;100.00
70250;BME280;57644;48.416;-123.374;2023-02-04T10:56:40;101474.10;;;0.29;100.00
70250;BME280;57644;48.416;-123.374;2023-02-04T10:59:20;101473.75;;;0.11;100.00
70250;BME280;57644;48.416;-123.374;2023-02-04T11:01:40;101472.69;;;0.15;100.00
70250;BME280;57644;48.416;-123.374;2023-02-04T11:04:11;101471.68;;;0.16;100.00
70250;BME280;57644;48.416;-123.374;2023-02-04T11:06:42;101472.06;;;0.04;100.00
70250;BME280;57644;48.416;-123.374;2023-02-04T11:09:13;101486.97;;;0.03;100.00
70250;BME280;57644;48.416;-123.374;2023-02-04T11:11:46;101493.01;;;0.15;100.00
70250;BME280;57644;48.416;-123.374;2023-02-04T11:14:21;101490.86;;;0.05;100.00
70250;BME280;57644;48.416;-123.374;2023-02-04T11:16:47;101488.46;;;0.09;100.00
70250;BME280;57644;48.416;-123.374;2023-02-04T11:19:14;101485.64;;;0.12;100.00
70250;BME280;57644;48.416;-123.374;2023-02-04T11:21:45;101487.59;;;0.10;100.00
70250;BME280;57644;48.416;-123.374;2023-02-04T11:24:22;101483.17;;;0.05;100.00
70250;BME280;57644;48.416;-123.374;2023-02-04T11:26:46;101488.56;;;-0.00;100.00
70250;BME280;57644;48.416;-123.374;2023-02-04T11:34:25;101493.46;;;0.08;100.00
70250;BME280;57644;48.416;-123.374;2023-02-04T11:37:00;101496.55;;;0.12;100.00
70250;BME280;57644;48.416;-123.374;2023-02-04T11:39:18;101495.69;;;0.13;100.00
70250;BME280;57644;48.416;-123.374;2023-02-04T11:41:48;101492.68;;;0.10;100.00
70250;BME280;57644;48.416;-123.374;2023-02-04T11:44:19;101491.14;;;0.06;100.00
70250;BME280;57644;48.416;-123.374;2023-02-04T11:46:50;101491.58;;;0.02;100.00
70250;BME280;57644;48.416;-123.374;2023-02-04T11:49:20;101488.76;;;-0.01;100.00
70250;BME280;57644;48.416;-123.374;2023-02-04T11:51:50;101487.85;;;-0.11;100.00
70250;BME280;57644;48.416;-123.374;2023-02-04T11:54:20;101492.27;;;-0.07;100.00
70250;BME280;57644;48.416;-123.374;2023-02-04T11:56:52;101493.48;;;-0.08;100.00
70250;BME280;57644;48.416;-123.374;2023-02-04T11:59:21;101498.42;;;-0.01;100.00
70250;BME280;57644;48.416;-123.374;2023-02-04T12:04:23;101492.67;;;0.06;100.00
70250;BME280;57644;48.416;-123.374;2023-02-04T12:06:57;101489.31;;;0.07;100.00
70250;BME280;57644;48.416;-123.374;2023-02-04T12:09:25;101486.85;;;0.12;100.00
70250;BME280;57644;48.416;-123.374;2023-02-04T12:11:55;101489.92;;;0.10;100.00
70250;BME280;57644;48.416;-123.374;2023-02-04T12:14:31;101485.32;;;0.11;100.00
70250;BME280;57644;48.416;-123.374;2023-02-04T12:16:55;101489.02;;;0.16;100.00
70250;BME280;57644;48.416;-123.374;2023-02-04T12:19:26;101485.34;;;0.08;100.00
70250;BME280;57644;48.416;-123.374;2023-02-04T12:21:56;101489.50;;;0.10;100.00
70250;BME280;57644;48.416;-123.374;2023-02-04T12:24:27;101482.02;;;0.15;100.00
70250;BME280;57644;48.416;-123.374;2023-02-04T12:26:57;101484.27;;;-0.00;100.00
70250;BME280;57644;48.416;-123.374;2023-02-04T12:29:27;101489.77;;;-0.04;100.00
70250;BME280;57644;48.416;-123.374;2023-02-04T12:31:58;101495.20;;;-0.31;100.00
70250;BME280;57644;48.416;-123.374;2023-02-04T12:34:28;101498.85;;;-1.03;100.00
70250;BME280;57644;48.416;-123.374;2023-02-04T12:36:59;101494.86;;;-1.21;100.00